Impacts METAR Board
IDs:

KTPA - Tampa Intl Arpt, FL, US

Updated at: 2100 UTC 15 Oct 2018
Potential Impact None Slight Moderate High
Time 15/09Z 15/10Z 15/11Z 15/12Z 15/13Z 15/14Z 15/15Z 15/16Z 15/17Z 15/18Z 15/19Z 15/20Z 15/21Z
Temp79 78 78 78 80 83 85 87 89 91 90 90 90
Dewpt75 75 75 75 75 75 75 71 69 70 72 73 73
Altim30.06 30.07 30.08 30.09 30.10 30.11 30.11 30.09 30.08 30.07 30.05 30.04 30.04
VIS10 8 8 6 10 10 10 10 10 10 10 10 10
CIG-- -- -- -- -- -- -- -- -- -- 45 45 45
CoverCLRFEWCLRFEWFEWFEWFEWFEWFEWFEWBKNBKNBKN
FltCatVFRVFRVFRVFRVFRVFRVFRVFRVFRVFRVFRVFRVFR
WX------BR------------------
WDir1100060001501500150708070
WSpd4 0 0 4 3 4 6 7 4 6 4 8 7
WGst-- -- -- -- -- -- -- -- -- -- -- -- --
Raw hourly METARs
KTPA 150853Z 11004KT 10SM CLR 26/24 A3006 RMK AO2 SLP179 T02610239 55003
KTPA 150953Z 00000KT 8SM FEW015 26/24 A3007 RMK AO2 SLP182 T02560239
KTPA 151053Z COR 00000KT 8SM CLR 26/24 A3008 RMK AO2 SLP185 T02560239
KTPA 151153Z 06004KT 6SM BR FEW010 26/24 A3009 RMK AO2 SLP189 70010 T02560239 10267 20256 53010
KTPA 151253Z VRB03KT 10SM FEW012 27/24 A3010 RMK AO2 SLP192 T02670239
KTPA 151353Z VRB04KT 10SM FEW015 28/24 A3011 RMK AO2 SLP195 T02830239
KTPA 151453Z 15006KT 10SM FEW020 29/24 A3011 RMK AO2 SLP194 T02940239 50004
KTPA 151553Z 15007KT 10SM FEW025 31/22 A3009 RMK AO2 SLP190 T03060217
KTPA 151653Z VRB04KT 10SM FEW040 32/21 A3008 RMK AO2 SLP185 T03170206
KTPA 151753Z 15006KT 10SM FEW045 33/21 A3007
KTPA 151853Z 07004KT 10SM BKN045 32/22 A3005
KTPA 151953Z 08008KT 10SM BKN045 32/23 A3004
KTPA 152053Z 07007KT 10SM BKN045 32/23 A3004



Page loaded:  21:57 UTC  |   02:57 PM Pacific  |   03:57 PM Mountain  |   04:57 PM Central  |   05:57 PM Eastern

 

ADVISORIES

FORECASTS

FORECASTS

OBSERVATIONS

USER TOOLS

ABOUT US